EJA110 YPPH-YGIG
Flight info
| Callsign | EJA110 |
|---|---|
| Flight time | 0h 31m |
| Altitude | 16000 |
| Route | YPPH/21 REPOK1 REPOK DCT YGIG/08 |
| Aircraft | C750/M-SBDE3FGHRWXY/S |
Departure
| Time | 2026-04-26 13:36 |
|---|---|
| Airport | Perth International Airport (YPPH) |
Arrival
| Time | 2026-04-26 14:07 |
|---|---|
| Airport | RAAF Gingin (YGIG) |
| Time | Latitude | Longitude | Altitude | Speed | Heading |
|---|---|---|---|---|---|
| 2026-04-26 12:53 | -31.92849 | 115.96375 | 52 ft | 0 kts | 282° |
| 2026-04-26 13:18 | -31.92851 | 115.96386 | 52 ft | 3 kts | 282° |
| 2026-04-26 13:19 | -31.92855 | 115.96408 | 53 ft | 3 kts | 282° |
| 2026-04-26 13:19 | -31.92859 | 115.96429 | 53 ft | 3 kts | 282° |
| 2026-04-26 13:19 | -31.92861 | 115.96440 | 51 ft | 0 kts | 282° |
| 2026-04-26 13:21 | -31.92857 | 115.96435 | 51 ft | 3 kts | 322° |
| 2026-04-26 13:21 | -31.92814 | 115.96459 | 54 ft | 11 kts | 50° |
| 2026-04-26 13:22 | -31.92820 | 115.96556 | 54 ft | 13 kts | 104° |
| 2026-04-26 13:22 | -31.92841 | 115.96654 | 53 ft | 11 kts | 103° |
| 2026-04-26 13:22 | -31.92854 | 115.96716 | 53 ft | 0 kts | 104° |
| 2026-04-26 13:33 | -31.92858 | 115.96738 | 56 ft | 7 kts | 104° |
| 2026-04-26 13:34 | -31.92884 | 115.96832 | 55 ft | 14 kts | 136° |
| 2026-04-26 13:34 | -31.92936 | 115.96822 | 52 ft | 0 kts | 194° |
| 2026-04-26 13:35 | -31.93030 | 115.96795 | 52 ft | 53 kts | 193° |
| 2026-04-26 13:35 | -31.93737 | 115.96591 | 56 ft | 143 kts | 194° |
| 2026-04-26 13:36 | -31.94721 | 115.96282 | 504 ft | 149 kts | 196° |
| 2026-04-26 13:36 | -31.95757 | 115.95983 | 1087 ft | 157 kts | 194° |
| 2026-04-26 13:36 | -31.96837 | 115.95682 | 1721 ft | 162 kts | 194° |
| 2026-04-26 13:36 | -31.97939 | 115.95365 | 2393 ft | 164 kts | 194° |
| 2026-04-26 13:37 | -31.99056 | 115.95040 | 3085 ft | 166 kts | 194° |
| 2026-04-26 13:37 | -32.00184 | 115.94712 | 3774 ft | 168 kts | 194° |
| 2026-04-26 13:37 | -32.01323 | 115.94380 | 4476 ft | 169 kts | 194° |
| 2026-04-26 13:37 | -32.02451 | 115.94059 | 5228 ft | 162 kts | 187° |
| 2026-04-26 13:38 | -32.03565 | 115.93964 | 5894 ft | 164 kts | 183° |
| 2026-04-26 13:38 | -32.04727 | 115.93963 | 6455 ft | 170 kts | 173° |
| 2026-04-26 13:38 | -32.05730 | 115.94728 | 6973 ft | 180 kts | 130° |
| 2026-04-26 13:38 | -32.06341 | 115.96061 | 7594 ft | 193 kts | 104° |
| 2026-04-26 13:39 | -32.06333 | 115.97689 | 8236 ft | 208 kts | 74° |
| 2026-04-26 13:39 | -32.05620 | 115.99224 | 8908 ft | 220 kts | 56° |
| 2026-04-26 13:39 | -32.04794 | 116.00800 | 9611 ft | 231 kts | 59° |
| 2026-04-26 13:39 | -32.03965 | 116.02468 | 10305 ft | 241 kts | 59° |
| 2026-04-26 13:40 | -32.03086 | 116.04157 | 10961 ft | 250 kts | 58° |
| 2026-04-26 13:40 | -32.02149 | 116.05931 | 11610 ft | 260 kts | 58° |
| 2026-04-26 13:40 | -32.01181 | 116.07778 | 12254 ft | 270 kts | 58° |
| 2026-04-26 13:40 | -32.00181 | 116.09694 | 12894 ft | 279 kts | 58° |
| 2026-04-26 13:41 | -31.98973 | 116.11520 | 13503 ft | 287 kts | 48° |
| 2026-04-26 13:41 | -31.97636 | 116.13313 | 14137 ft | 295 kts | 49° |
| 2026-04-26 13:41 | -31.96279 | 116.15170 | 14785 ft | 303 kts | 49° |
| 2026-04-26 13:41 | -31.94896 | 116.17066 | 15417 ft | 309 kts | 49° |
| 2026-04-26 13:42 | -31.93468 | 116.19007 | 15986 ft | 320 kts | 49° |
| 2026-04-26 13:42 | -31.91948 | 116.21070 | 16012 ft | 347 kts | 49° |
| 2026-04-26 13:42 | -31.90311 | 116.23295 | 16009 ft | 372 kts | 49° |
| 2026-04-26 13:42 | -31.88569 | 116.25661 | 16010 ft | 393 kts | 49° |
| 2026-04-26 13:43 | -31.86529 | 116.27904 | 16001 ft | 410 kts | 39° |
| 2026-04-26 13:43 | -31.84232 | 116.30007 | 16011 ft | 427 kts | 37° |
| 2026-04-26 13:43 | -31.81838 | 116.32175 | 16010 ft | 441 kts | 38° |
| 2026-04-26 13:43 | -31.79446 | 116.34430 | 16008 ft | 431 kts | 39° |
| 2026-04-26 13:44 | -31.77185 | 116.36585 | 15999 ft | 407 kts | 38° |
| 2026-04-26 13:44 | -31.75019 | 116.38598 | 15990 ft | 387 kts | 38° |
| 2026-04-26 13:44 | -31.72949 | 116.40503 | 15989 ft | 370 kts | 38° |
| 2026-04-26 13:44 | -31.70971 | 116.42348 | 15987 ft | 356 kts | 38° |
| 2026-04-26 13:45 | -31.69071 | 116.44128 | 15991 ft | 343 kts | 38° |
| 2026-04-26 13:45 | -31.67227 | 116.45844 | 15989 ft | 333 kts | 38° |
| 2026-04-26 13:45 | -31.65436 | 116.47505 | 15986 ft | 324 kts | 38° |
| 2026-04-26 13:45 | -31.63691 | 116.49128 | 15991 ft | 316 kts | 38° |
| 2026-04-26 13:46 | -31.61987 | 116.50711 | 15993 ft | 309 kts | 38° |
| 2026-04-26 13:46 | -31.60318 | 116.52262 | 15990 ft | 303 kts | 38° |
| 2026-04-26 13:46 | -31.58685 | 116.53778 | 15987 ft | 295 kts | 38° |
| 2026-04-26 13:46 | -31.57093 | 116.55255 | 15989 ft | 291 kts | 38° |
| 2026-04-26 13:47 | -31.55498 | 116.56733 | 15990 ft | 295 kts | 38° |
| 2026-04-26 13:47 | -31.54425 | 116.57726 | 15992 ft | 299 kts | 38° |
| 2026-04-26 13:47 | -31.52213 | 116.59771 | 16005 ft | 306 kts | 38° |
| 2026-04-26 13:47 | -31.50534 | 116.61321 | 16006 ft | 309 kts | 38° |
| 2026-04-26 13:48 | -31.48816 | 116.62852 | 15982 ft | 312 kts | 32° |
| 2026-04-26 13:48 | -31.46754 | 116.63564 | 15947 ft | 313 kts | 1° |
| 2026-04-26 13:48 | -31.45335 | 116.63312 | 15972 ft | 312 kts | 343° |
| 2026-04-26 13:48 | -31.43425 | 116.62131 | 15982 ft | 313 kts | 320° |
| 2026-04-26 13:49 | -31.42077 | 116.60147 | 15983 ft | 314 kts | 296° |
| 2026-04-26 13:49 | -31.41533 | 116.57684 | 15984 ft | 316 kts | 272° |
| 2026-04-26 13:49 | -31.41808 | 116.55144 | 16026 ft | 315 kts | 258° |
| 2026-04-26 13:49 | -31.42304 | 116.52637 | 16024 ft | 317 kts | 257° |
| 2026-04-26 13:50 | -31.42793 | 116.50094 | 15619 ft | 323 kts | 258° |
| 2026-04-26 13:50 | -31.43243 | 116.47488 | 15011 ft | 329 kts | 259° |
| 2026-04-26 13:50 | -31.43698 | 116.44844 | 14396 ft | 334 kts | 258° |
| 2026-04-26 13:50 | -31.44184 | 116.42172 | 13776 ft | 337 kts | 258° |
| 2026-04-26 13:51 | -31.44698 | 116.39488 | 12997 ft | 337 kts | 257° |
| 2026-04-26 13:51 | -31.45234 | 116.36830 | 12125 ft | 334 kts | 256° |
| 2026-04-26 13:51 | -31.45790 | 116.34205 | 11251 ft | 330 kts | 256° |
| 2026-04-26 13:51 | -31.46366 | 116.31613 | 10378 ft | 327 kts | 255° |
| 2026-04-26 13:52 | -31.46954 | 116.29088 | 9512 ft | 324 kts | 255° |
| 2026-04-26 13:52 | -31.47568 | 116.26560 | 8646 ft | 321 kts | 254° |
| 2026-04-26 13:52 | -31.48202 | 116.24068 | 7777 ft | 318 kts | 253° |
| 2026-04-26 13:52 | -31.48837 | 116.21674 | 7069 ft | 289 kts | 252° |
| 2026-04-26 13:53 | -31.49454 | 116.19450 | 6405 ft | 286 kts | 252° |
| 2026-04-26 13:53 | -31.50092 | 116.17254 | 5745 ft | 284 kts | 251° |
| 2026-04-26 13:53 | -31.50750 | 116.15083 | 5107 ft | 281 kts | 250° |
| 2026-04-26 13:53 | -31.51409 | 116.13008 | 4991 ft | 260 kts | 249° |
| 2026-04-26 13:54 | -31.52036 | 116.11122 | 4985 ft | 238 kts | 248° |
| 2026-04-26 13:54 | -31.52642 | 116.09391 | 4990 ft | 229 kts | 247° |
| 2026-04-26 13:54 | -31.53293 | 116.07618 | 4994 ft | 245 kts | 246° |
| 2026-04-26 13:55 | -31.54761 | 116.03865 | 5012 ft | 251 kts | 245° |
| 2026-04-26 13:55 | -31.55271 | 116.02630 | 5006 ft | 247 kts | 244° |
| 2026-04-26 13:55 | -31.57059 | 115.98557 | 4991 ft | 237 kts | 242° |
| 2026-04-26 13:56 | -31.57847 | 115.96878 | 4990 ft | 234 kts | 241° |
| 2026-04-26 13:56 | -31.58655 | 115.95224 | 4938 ft | 233 kts | 240° |
| 2026-04-26 13:56 | -31.59482 | 115.93596 | 4933 ft | 231 kts | 239° |
| 2026-04-26 13:56 | -31.60326 | 115.92000 | 4935 ft | 229 kts | 238° |
| 2026-04-26 13:57 | -31.61184 | 115.90435 | 4930 ft | 227 kts | 237° |
| 2026-04-26 13:57 | -31.62052 | 115.88896 | 4931 ft | 225 kts | 236° |
| 2026-04-26 13:57 | -31.62926 | 115.87381 | 4932 ft | 224 kts | 236° |
| 2026-04-26 13:57 | -31.63813 | 115.85884 | 4934 ft | 222 kts | 235° |
| 2026-04-26 13:58 | -31.64709 | 115.84407 | 4931 ft | 221 kts | 234° |
| 2026-04-26 13:58 | -31.65593 | 115.82937 | 4933 ft | 220 kts | 236° |
| 2026-04-26 13:58 | -31.66441 | 115.81444 | 4930 ft | 219 kts | 237° |
| 2026-04-26 13:58 | -31.66882 | 115.79775 | 4855 ft | 218 kts | 274° |
| 2026-04-26 13:59 | -31.66263 | 115.78209 | 4895 ft | 212 kts | 309° |
| 2026-04-26 13:59 | -31.65285 | 115.76938 | 4952 ft | 209 kts | 313° |
| 2026-04-26 13:59 | -31.64258 | 115.75732 | 4951 ft | 209 kts | 315° |
| 2026-04-26 14:00 | -31.60956 | 115.72014 | 3494 ft | 225 kts | 315° |
| 2026-04-26 14:00 | -31.59836 | 115.70745 | 2882 ft | 223 kts | 315° |
| 2026-04-26 14:00 | -31.59105 | 115.69918 | 2730 ft | 216 kts | 315° |
| 2026-04-26 14:01 | -31.57773 | 115.68413 | 2729 ft | 195 kts | 315° |
| 2026-04-26 14:01 | -31.56827 | 115.67356 | 2727 ft | 180 kts | 318° |
| 2026-04-26 14:01 | -31.55692 | 115.66865 | 2595 ft | 174 kts | 355° |
| 2026-04-26 14:01 | -31.54555 | 115.67023 | 2690 ft | 158 kts | 16° |
| 2026-04-26 14:02 | -31.53545 | 115.67399 | 2726 ft | 150 kts | 15° |
| 2026-04-26 14:02 | -31.52576 | 115.67727 | 2725 ft | 145 kts | 15° |
| 2026-04-26 14:02 | -31.51627 | 115.68069 | 2728 ft | 141 kts | 20° |
| 2026-04-26 14:02 | -31.50830 | 115.68705 | 2729 ft | 138 kts | 45° |
| 2026-04-26 14:03 | -31.50288 | 115.69655 | 2732 ft | 143 kts | 67° |
| 2026-04-26 14:03 | -31.50028 | 115.70746 | 2731 ft | 136 kts | 75° |
| 2026-04-26 14:03 | -31.49775 | 115.71801 | 2726 ft | 133 kts | 74° |
| 2026-04-26 14:03 | -31.49522 | 115.72878 | 2421 ft | 143 kts | 74° |
| 2026-04-26 14:04 | -31.49262 | 115.74003 | 2213 ft | 139 kts | 75° |
| 2026-04-26 14:04 | -31.49012 | 115.75087 | 2079 ft | 137 kts | 75° |
| 2026-04-26 14:04 | -31.48764 | 115.76167 | 1950 ft | 138 kts | 75° |
| 2026-04-26 14:04 | -31.48513 | 115.77255 | 1759 ft | 140 kts | 75° |
| 2026-04-26 14:05 | -31.48259 | 115.78359 | 1528 ft | 139 kts | 75° |
| 2026-04-26 14:05 | -31.48010 | 115.79447 | 1326 ft | 137 kts | 75° |
| 2026-04-26 14:05 | -31.47764 | 115.80519 | 1120 ft | 136 kts | 75° |
| 2026-04-26 14:05 | -31.47522 | 115.81573 | 910 ft | 130 kts | 75° |
| 2026-04-26 14:06 | -31.47289 | 115.82588 | 698 ft | 129 kts | 75° |
| 2026-04-26 14:06 | -31.47054 | 115.83613 | 536 ft | 129 kts | 75° |
| 2026-04-26 14:06 | -31.46824 | 115.84599 | 371 ft | 121 kts | 75° |
| 2026-04-26 14:06 | -31.46613 | 115.85526 | 261 ft | 115 kts | 75° |
| 2026-04-26 14:07 | -31.46431 | 115.86331 | 242 ft | 74 kts | 72° |
| 2026-04-26 14:07 | -31.46384 | 115.86622 | 239 ft | 14 kts | 128° |
| 2026-04-26 14:07 | -31.46452 | 115.86670 | 242 ft | 10 kts | 180° |
| 2026-04-26 14:07 | -31.46466 | 115.86668 | 242 ft | 0 kts | 193° |
| 2026-04-26 14:08 | -31.46480 | 115.86661 | 242 ft | 6 kts | 208° |
| 2026-04-26 14:08 | -31.46523 | 115.86580 | 242 ft | 18 kts | 253° |
| 2026-04-26 14:09 | -31.46563 | 115.86396 | 242 ft | 28 kts | 256° |
| 2026-04-26 14:09 | -31.46609 | 115.86185 | 243 ft | 24 kts | 256° |
| 2026-04-26 14:09 | -31.46655 | 115.86081 | 243 ft | 12 kts | 191° |
| 2026-04-26 14:09 | -31.46711 | 115.86092 | 243 ft | 0 kts | 198° |
| 2026-04-26 14:10 | -31.46718 | 115.86083 | 243 ft | 0 kts | 234° |